< < Back
Terminal Aerodrome Forecast


Current Version              Previous Versions:   1  2  3  4  5  6  7  8  9  

Terminal Aerodrome Forecast

867
FTUS44 KHUN 240540
TAFHSV
TAF
KHSV 240540Z 2406/2506 21012G20KT P6SM BKN015 OVC035
     FM241400 23012G20KT P6SM VCSH BKN025 BKN035
     FM241600 26010KT P6SM SCT030 SCT250
     FM242300 VRB05KT P6SM SKC=

Latest METAR

095
SAUS80 KWBC 241400 RRB
MTRHSV
METAR KHSV 241353Z 23016G22KT 10SM FEW029 BKN038 18/12 A2972 RMK AO2
SLP061 T01830122


USA.gov is the U.S. government's official web portal to all federal, state and local government web resources and services.